Terminal Aerodrome Forecast
Issued by NWS

Home | Current Version | Previous Version | Text Only | Print | Product List | Glossary On
Versions: 1 2 3 4 5 6 7 8 9 10 11 12 13 14 15 16 17 18 19 20 21 22 23
000
FTUS43 KPAH 191000 AAC
TAFCGI
TAF AMD
KCGI 191023Z 1910/2006 VRB03KT 6SM BR BKN045
      TEMPO 1910/1913 00000KT 3SM BR SCT045
     FM191400 11005KT P6SM SCT045=

USA.gov is the U.S. government's official web portal to all federal, state and local government web resources and services.